createdAt,value
2023-04-30T00:02:06.776Z,4.53
2023-04-30T00:07:10.984Z,4.48
2023-04-30T00:12:14.930Z,4.40
2023-04-30T00:17:20.944Z,4.32
2023-04-30T00:22:22.660Z,4.26
2023-04-30T00:27:26.953Z,4.21
2023-04-30T00:32:31.067Z,4.16
2023-04-30T00:37:35.861Z,4.06
2023-04-30T00:42:37.644Z,4.02
2023-04-30T00:47:39.411Z,3.96
2023-04-30T00:52:42.001Z,3.86
2023-04-30T00:57:46.674Z,3.84
2023-04-30T01:02:48.644Z,3.78
2023-04-30T01:07:56.752Z,3.78
2023-04-30T01:13:08.333Z,3.77
2023-04-30T01:18:21.651Z,3.75
2023-04-30T01:23:31.607Z,3.67
2023-04-30T01:28:36.598Z,3.61
2023-04-30T01:33:38.333Z,3.58
2023-04-30T01:39:08.550Z,3.51
2023-04-30T01:44:38.668Z,3.48
2023-04-30T01:50:03.173Z,3.42
2023-04-30T01:55:31.127Z,3.36
2023-04-30T02:00:34.022Z,3.32
2023-04-30T02:05:38.237Z,3.24
2023-04-30T02:10:43.097Z,3.19
2023-04-30T02:15:44.811Z,3.19
2023-04-30T02:20:48.749Z,3.17
2023-04-30T02:25:52.755Z,3.09
2023-04-30T02:30:56.571Z,2.99
2023-04-30T02:36:00.080Z,2.93
2023-04-30T02:41:04.441Z,2.87
2023-04-30T02:46:06.881Z,2.78
2023-04-30T02:51:10.799Z,2.71
2023-04-30T02:56:12.478Z,2.68
2023-04-30T03:01:14.873Z,2.66
2023-04-30T03:06:24.003Z,2.72
2023-04-30T03:11:28.275Z,2.68
2023-04-30T03:16:32.149Z,2.64
2023-04-30T03:21:34.282Z,2.62
2023-04-30T03:26:41.445Z,2.57
2023-04-30T03:31:43.260Z,2.53
2023-04-30T03:36:47.525Z,2.46
2023-04-30T03:41:51.620Z,2.40
2023-04-30T03:46:53.311Z,2.36
2023-04-30T03:52:02.573Z,2.30
2023-04-30T03:57:04.614Z,2.23
2023-04-30T04:02:08.773Z,2.17
2023-04-30T04:07:12.922Z,2.18
2023-04-30T04:12:17.146Z,2.48
2023-04-30T04:17:19.244Z,2.37
2023-04-30T04:22:23.982Z,2.31
2023-04-30T04:27:25.719Z,2.29
2023-04-30T04:32:30.680Z,2.27
2023-04-30T04:37:35.617Z,2.35
2023-04-30T04:42:38.368Z,2.39
2023-04-30T04:47:42.642Z,2.45
2023-04-30T04:52:44.430Z,2.57
2023-04-30T04:57:46.655Z,2.72
2023-04-30T05:02:51.691Z,2.90
2023-04-30T05:07:55.010Z,3.05
2023-04-30T05:12:59.016Z,3.23
2023-04-30T05:18:03.351Z,3.40
2023-04-30T05:23:05.161Z,3.56
2023-04-30T05:28:07.070Z,3.74
2023-04-30T05:33:11.786Z,3.94
2023-04-30T05:38:13.676Z,4.17
2023-04-30T05:43:20.010Z,4.40
2023-04-30T05:48:23.915Z,4.58
2023-04-30T05:53:25.576Z,4.77
2023-04-30T05:58:28.370Z,4.98
2023-04-30T06:03:30.150Z,5.18
2023-04-30T06:08:31.820Z,5.42
2023-04-30T06:13:33.654Z,5.74
2023-04-30T06:18:35.447Z,6.07
2023-04-30T06:23:42.098Z,6.26
2023-04-30T06:28:47.066Z,6.43
2023-04-30T06:33:48.744Z,6.52
2023-04-30T06:38:52.763Z,6.61
2023-04-30T06:43:56.912Z,6.66
2023-04-30T06:49:03.262Z,6.94
2023-04-30T06:54:08.276Z,7.08
2023-04-30T06:59:14.410Z,7.23
2023-04-30T07:04:16.227Z,7.51
2023-04-30T07:09:20.285Z,7.73
2023-04-30T07:14:22.080Z,7.97
2023-04-30T07:19:27.103Z,8.13
2023-04-30T07:24:29.587Z,8.29
2023-04-30T07:29:31.683Z,8.57
2023-04-30T07:34:35.927Z,8.75
2023-04-30T07:39:38.264Z,9.00
2023-04-30T07:44:44.711Z,9.05
2023-04-30T07:49:47.425Z,9.25
2023-04-30T07:54:51.338Z,9.42
2023-04-30T07:59:57.587Z,9.62
2023-04-30T08:05:07.840Z,9.96
2023-04-30T08:10:14.882Z,10.08
2023-04-30T08:15:16.593Z,10.41
2023-04-30T08:20:23.349Z,10.63
2023-04-30T08:25:28.187Z,10.90
2023-04-30T08:30:33.320Z,11.39
2023-04-30T08:35:35.020Z,11.71
2023-04-30T08:45:53.312Z,11.62
2023-04-30T08:50:57.251Z,11.82
2023-04-30T08:56:01.218Z,12.15
2023-04-30T09:01:07.272Z,12.37
2023-04-30T09:06:15.812Z,12.54
2023-04-30T09:11:29.728Z,12.48
2023-04-30T09:16:49.378Z,12.03
2023-04-30T09:21:56.391Z,12.19
2023-04-30T09:26:58.092Z,12.39
2023-04-30T09:32:09.089Z,12.39
2023-04-30T09:37:13.675Z,12.34
2023-04-30T09:42:16.410Z,12.38
2023-04-30T09:47:21.224Z,12.30
2023-04-30T09:52:28.202Z,12.21
2023-04-30T09:57:31.983Z,12.28
2023-04-30T10:02:38.610Z,12.36
2023-04-30T10:07:42.933Z,12.51
2023-04-30T10:12:50.299Z,12.40
2023-04-30T10:17:59.059Z,12.64
2023-04-30T10:23:01.379Z,12.87
2023-04-30T10:28:05.891Z,12.63
2023-04-30T10:33:17.038Z,12.41
2023-04-30T10:38:25.250Z,12.50
2023-04-30T10:43:31.159Z,12.61
2023-04-30T10:48:35.951Z,12.56
2023-04-30T10:53:42.565Z,12.55
2023-04-30T10:58:46.385Z,12.67
2023-04-30T11:04:08.254Z,12.73
2023-04-30T11:09:10.162Z,12.92
2023-04-30T11:14:20.481Z,12.95
2023-04-30T11:19:25.487Z,13.03
2023-04-30T11:25:02.354Z,13.09
2023-04-30T11:30:13.220Z,13.17
2023-04-30T11:35:18.862Z,13.28
2023-04-30T11:40:22.907Z,13.41
2023-04-30T11:45:25.119Z,13.54
2023-04-30T11:50:35.988Z,13.52
2023-04-30T11:55:37.738Z,14.01
2023-04-30T12:00:44.788Z,15.46
2023-04-30T12:05:51.202Z,17.17
2023-04-30T12:10:55.624Z,18.38
2023-04-30T12:15:59.441Z,19.41
2023-04-30T12:21:01.279Z,20.08
2023-04-30T12:26:03.398Z,20.87
2023-04-30T12:31:06.050Z,21.62
2023-04-30T12:36:11.350Z,22.51
2023-04-30T12:41:17.466Z,23.37
2023-04-30T12:46:28.202Z,24.39
2023-04-30T12:51:34.916Z,25.13
2023-04-30T12:56:36.832Z,25.97
2023-04-30T13:01:45.166Z,26.44
2023-04-30T13:06:49.906Z,27.19
2023-04-30T13:11:56.573Z,27.67
2023-04-30T13:16:59.038Z,27.01
2023-04-30T13:22:01.822Z,27.52
2023-04-30T13:27:06.129Z,28.13
2023-04-30T13:32:08.391Z,28.57
2023-04-30T13:37:10.128Z,29.04
2023-04-30T13:42:11.848Z,29.94
2023-04-30T13:47:16.035Z,30.89
2023-04-30T13:52:17.703Z,32.09
2023-04-30T13:57:21.850Z,32.88
2023-04-30T14:02:23.593Z,33.54
2023-04-30T14:07:25.398Z,34.36
2023-04-30T14:12:30.704Z,34.85
2023-04-30T14:17:35.185Z,34.81
2023-04-30T14:22:39.348Z,35.46
2023-04-30T14:27:48.425Z,36.31
2023-04-30T14:32:50.209Z,36.78
2023-04-30T14:37:51.940Z,37.47
2023-04-30T14:42:55.956Z,37.66
2023-04-30T14:48:00.702Z,38.12
2023-04-30T14:53:06.910Z,37.92
2023-04-30T14:58:11.420Z,38.16
2023-04-30T15:03:16.989Z,38.96
2023-04-30T15:08:18.793Z,39.45
2023-04-30T15:13:20.605Z,39.64
2023-04-30T15:18:22.277Z,39.83
2023-04-30T15:23:26.978Z,39.50
2023-04-30T15:28:29.028Z,39.56
2023-04-30T15:33:33.700Z,39.84
2023-04-30T15:38:35.398Z,39.36
2023-04-30T15:43:37.209Z,39.79
2023-04-30T15:48:39.574Z,39.68
2023-04-30T15:53:41.364Z,40.27
2023-04-30T15:58:45.772Z,38.89
2023-04-30T16:03:50.485Z,40.09
2023-04-30T16:08:52.968Z,39.69
2023-04-30T16:13:54.715Z,38.86
2023-04-30T16:18:56.612Z,38.72
2023-04-30T16:24:03.195Z,38.94
2023-04-30T16:29:05.063Z,38.74
2023-04-30T16:34:12.262Z,37.76
2023-04-30T16:39:17.202Z,34.66
2023-04-30T16:44:19.191Z,30.12
2023-04-30T16:49:22.482Z,27.06
2023-04-30T16:54:29.524Z,25.19
2023-04-30T16:59:31.193Z,24.07
2023-04-30T17:04:36.005Z,22.71
2023-04-30T17:09:41.723Z,22.37
2023-04-30T17:14:43.490Z,21.54
2023-04-30T17:19:47.495Z,20.62
2023-04-30T17:24:51.573Z,20.16
2023-04-30T17:29:56.685Z,19.49
2023-04-30T17:35:00.063Z,18.76
2023-04-30T17:40:08.142Z,18.37
2023-04-30T17:45:13.309Z,17.81
2023-04-30T17:50:15.863Z,17.44
2023-04-30T17:55:17.864Z,17.18
2023-04-30T18:00:20.298Z,16.70
2023-04-30T18:05:22.246Z,16.36
2023-04-30T18:10:24.119Z,15.84
2023-04-30T18:15:26.806Z,15.73
2023-04-30T18:20:30.699Z,15.61
2023-04-30T18:25:34.302Z,15.40
2023-04-30T18:30:36.841Z,15.16
2023-04-30T18:35:41.110Z,14.96
2023-04-30T18:40:42.954Z,14.76
2023-04-30T18:45:44.932Z,14.48
2023-04-30T18:50:51.848Z,14.23
2023-04-30T18:55:53.855Z,14.03
2023-04-30T19:00:58.825Z,13.78
2023-04-30T19:06:00.684Z,13.63
2023-04-30T19:11:04.536Z,13.54
2023-04-30T19:16:06.831Z,13.37
2023-04-30T19:21:09.365Z,13.21
2023-04-30T19:26:11.247Z,13.06
2023-04-30T19:31:13.033Z,12.80
2023-04-30T19:36:14.955Z,12.65
2023-04-30T19:41:16.944Z,12.60
2023-04-30T19:46:18.638Z,12.46
2023-04-30T19:51:24.684Z,12.35
2023-04-30T19:56:28.703Z,12.25
2023-04-30T20:01:30.604Z,12.17
2023-04-30T20:06:35.111Z,12.03
2023-04-30T20:11:37.064Z,12.02
2023-04-30T20:16:41.909Z,11.85
2023-04-30T20:21:46.636Z,11.80
2023-04-30T20:26:48.379Z,11.54
2023-04-30T20:31:53.156Z,12.38
2023-04-30T20:37:00.071Z,11.59
2023-04-30T20:42:01.854Z,11.25
2023-04-30T20:47:05.317Z,10.99
2023-04-30T20:52:07.338Z,10.84
2023-04-30T20:57:11.358Z,10.70
2023-04-30T21:02:15.649Z,10.59
2023-04-30T21:07:19.672Z,10.46
2023-04-30T21:12:23.489Z,10.34
2023-04-30T21:17:29.955Z,10.26
2023-04-30T21:22:32.421Z,10.19
2023-04-30T21:27:34.079Z,10.09
2023-04-30T21:32:40.614Z,10.01
2023-04-30T21:37:49.977Z,9.89
2023-04-30T21:42:57.425Z,9.76
2023-04-30T21:48:01.666Z,9.70
2023-04-30T21:53:03.425Z,9.58
2023-04-30T21:58:07.366Z,9.50
2023-04-30T22:03:11.424Z,9.40
2023-04-30T22:08:16.099Z,9.35
2023-04-30T22:13:20.362Z,9.26
2023-04-30T22:18:22.962Z,9.19
2023-04-30T22:23:29.502Z,9.18
2023-04-30T22:28:33.709Z,9.11
2023-04-30T22:33:36.585Z,9.04
2023-04-30T22:38:40.573Z,8.96
2023-04-30T22:43:42.386Z,8.90
2023-04-30T22:48:46.419Z,8.79
2023-04-30T22:53:50.466Z,8.67
2023-04-30T22:58:54.538Z,8.62
2023-04-30T23:04:01.537Z,8.55
2023-04-30T23:09:03.624Z,8.51
2023-04-30T23:14:08.207Z,8.44
2023-04-30T23:19:10.432Z,8.33
2023-04-30T23:24:14.790Z,8.23
2023-04-30T23:29:18.702Z,8.17
2023-04-30T23:34:24.199Z,8.09
2023-04-30T23:39:25.911Z,8.00
2023-04-30T23:44:32.368Z,7.96
2023-04-30T23:49:34.339Z,7.89
2023-04-30T23:54:36.138Z,7.83
2023-04-30T23:59:42.637Z,7.77
